Time;durP1;ratioP1;P1;durP2;ratioP2;P2;SDS_P1;SDS_P2;PMS_P1;PMS_P2;Temp;Humidity;BMP_temperature;BMP_pressure;BME280_temperature;BME280_humidity;BME280_pressure;Samples;Min_cycle;Max_cycle;Signal;HPM_P1;HPM_P2
2022/03/27 00:00:40;;;;;;;12.70;5.60;;;;;;;1.71;57.21;101556.48;130626;1265;99178;-78
2022/03/27 00:03:50;;;;;;;10.90;4.90;;;;;;;1.65;57.48;101561.48;130692;1265;98052;-77
2022/03/27 00:06:53;;;;;;;11.30;5.20;;;;;;;1.59;57.70;101566.44;130504;1265;99143;-77
2022/03/27 00:09:55;;;;;;;11.20;5.70;;;;;;;1.52;58.09;101573.05;130468;1265;99101;-76
2022/03/27 00:12:58;;;;;;;10.60;5.50;;;;;;;1.44;58.08;101572.84;130512;1264;97970;-76
2022/03/27 00:16:00;;;;;;;14.00;5.50;;;;;;;1.40;58.68;101578.27;130467;1265;98018;-75
2022/03/27 00:19:04;;;;;;;11.10;5.10;;;;;;;1.35;58.63;101577.73;130472;1265;97976;-76
2022/03/27 00:22:07;;;;;;;11.00;5.30;;;;;;;1.33;58.62;101573.30;130410;1265;136553;-75
2022/03/27 00:25:11;;;;;;;11.00;4.90;;;;;;;1.30;59.15;101577.63;130462;1265;98980;-76
2022/03/27 00:28:13;;;;;;;10.40;4.50;;;;;;;1.25;59.04;101577.80;130521;1265;99189;-75
2022/03/27 00:31:17;;;;;;;12.40;5.20;;;;;;;1.23;58.96;101580.91;130525;1265;97970;-74
2022/03/27 00:34:21;;;;;;;11.10;5.00;;;;;;;1.21;59.09;101589.89;130434;1265;99159;-74
2022/03/27 00:37:24;;;;;;;11.40;5.10;;;;;;;1.21;59.04;101582.88;130650;1265;99176;-75
2022/03/27 00:40:26;;;;;;;9.80;4.50;;;;;;;1.24;58.62;101580.49;130577;1265;99031;-75
2022/03/27 00:43:29;;;;;;;14.20;5.60;;;;;;;1.26;58.58;101584.24;130523;1265;97987;-75
2022/03/27 00:46:32;;;;;;;9.80;4.90;;;;;;;1.28;58.87;101583.32;130518;1265;97977;-76
2022/03/27 00:49:34;;;;;;;13.70;5.40;;;;;;;1.26;58.75;101582.33;130462;1265;99031;-73
2022/03/27 00:52:37;;;;;;;11.60;4.80;;;;;;;1.23;59.18;101583.52;130497;1265;99106;-72
2022/03/27 00:55:40;;;;;;;9.50;4.20;;;;;;;1.16;59.18;101589.71;130453;1265;97985;-74
2022/03/27 00:58:42;;;;;;;13.70;5.60;;;;;;;1.15;58.88;101591.66;130452;1265;99253;-73
2022/03/27 01:01:45;;;;;;;14.90;4.90;;;;;;;1.18;58.82;101587.55;130675;1265;98049;-75
2022/03/27 01:04:48;;;;;;;11.60;4.00;;;;;;;1.15;59.13;101585.37;130585;1265;112262;-75
2022/03/27 01:07:50;;;;;;;11.00;3.80;;;;;;;1.10;59.39;101583.83;130454;1265;98086;-76
2022/03/27 01:10:53;;;;;;;12.90;4.30;;;;;;;1.05;59.26;101588.21;130495;1265;98610;-73
2022/03/27 01:13:57;;;;;;;11.90;4.70;;;;;;;1.03;59.12;101580.42;130537;1265;99034;-74
2022/03/27 01:17:05;;;;;;;14.80;4.90;;;;;;;1.08;59.36;101581.64;130600;1265;112471;-73
2022/03/27 01:20:09;;;;;;;14.40;4.80;;;;;;;1.07;59.01;101582.54;130636;1264;112427;-75
2022/03/27 01:23:13;;;;;;;11.70;4.40;;;;;;;1.10;59.15;101583.48;130695;1265;110674;-72
2022/03/27 01:26:16;;;;;;;13.90;5.00;;;;;;;1.11;59.17;101584.98;130659;1265;112313;-75
2022/03/27 01:29:19;;;;;;;10.70;4.50;;;;;;;1.13;59.16;101587.55;130681;1265;112383;-75
2022/03/27 01:32:22;;;;;;;12.00;4.60;;;;;;;1.11;59.39;101585.53;130681;1265;112273;-75
2022/03/27 01:35:25;;;;;;;11.20;4.70;;;;;;;1.12;59.11;101587.94;130626;1265;98071;-73
2022/03/27 01:38:28;;;;;;;10.20;4.10;;;;;;;1.13;59.15;101588.63;130596;1265;99139;-76
2022/03/27 01:41:31;;;;;;;11.30;3.90;;;;;;;1.14;59.28;101595.92;130495;1265;97964;-77
2022/03/27 01:44:34;;;;;;;11.10;4.20;;;;;;;1.18;59.29;101599.29;130642;1265;99146;-75
2022/03/27 01:47:37;;;;;;;10.90;4.10;;;;;;;1.20;59.32;101600.28;130656;1265;99155;-76
2022/03/27 01:50:40;;;;;;;11.60;4.20;;;;;;;1.21;59.26;101602.17;130660;1265;98706;-75
2022/03/27 01:53:42;;;;;;;13.60;4.30;;;;;;;1.19;59.24;101606.25;130577;1265;97949;-76
2022/03/27 01:56:46;;;;;;;10.50;4.20;;;;;;;1.19;59.33;101610.63;130765;1265;97968;-74
2022/03/27 01:59:48;;;;;;;10.20;3.90;;;;;;;1.10;59.51;101605.89;130670;1265;99146;-76
2022/03/27 02:02:52;;;;;;;10.50;4.00;;;;;;;1.08;59.51;101604.23;130573;1265;99146;-76
2022/03/27 02:05:55;;;;;;;13.50;4.80;;;;;;;1.10;59.53;101602.59;130612;1265;112264;-76
2022/03/27 02:08:59;;;;;;;12.40;4.50;;;;;;;1.10;59.61;101609.06;130636;1265;99108;-75
2022/03/27 02:12:03;;;;;;;11.00;4.20;;;;;;;1.06;59.69;101610.96;130733;1265;112293;-74
2022/03/27 02:15:07;;;;;;;12.70;4.50;;;;;;;1.04;59.69;101615.61;130620;1265;113340;-74
2022/03/27 02:18:10;;;;;;;14.00;4.60;;;;;;;1.04;59.90;101622.28;130651;1265;113149;-72
2022/03/27 02:21:13;;;;;;;12.90;4.60;;;;;;;1.02;59.88;101620.27;130655;1265;112247;-73
2022/03/27 02:24:16;;;;;;;13.00;4.40;;;;;;;0.97;60.16;101627.25;130706;1265;99063;-74
2022/03/27 02:27:19;;;;;;;7.30;3.70;;;;;;;0.89;60.53;101630.88;130539;1265;99116;-76
2022/03/27 02:30:21;;;;;;;12.70;4.80;;;;;;;0.84;60.27;101638.95;130639;1265;98081;-76
2022/03/27 02:33:24;;;;;;;12.40;4.40;;;;;;;0.82;60.51;101641.83;130661;1265;98761;-77
2022/03/27 02:36:27;;;;;;;11.70;4.10;;;;;;;0.78;60.69;101637.25;130630;1265;97939;-75
2022/03/27 02:39:30;;;;;;;11.50;4.20;;;;;;;0.73;60.90;101644.60;130638;1265;98719;-76
2022/03/27 02:42:32;;;;;;;19.40;4.80;;;;;;;0.67;60.84;101646.21;130665;1265;98049;-77
2022/03/27 02:45:35;;;;;;;12.40;4.10;;;;;;;0.64;60.69;101639.88;130668;1265;98718;-77
2022/03/27 02:48:38;;;;;;;9.90;3.80;;;;;;;0.62;61.04;101643.23;130649;1265;98017;-77
2022/03/27 02:51:42;;;;;;;12.40;4.60;;;;;;;0.58;60.84;101642.67;130743;1265;99162;-78
2022/03/27 02:54:45;;;;;;;11.80;3.90;;;;;;;0.58;61.34;101649.84;130694;1265;99184;-77
2022/03/27 02:57:49;;;;;;;11.10;4.20;;;;;;;0.54;61.15;101652.80;130693;1265;98773;-77
2022/03/27 03:00:52;;;;;;;10.90;3.70;;;;;;;0.54;61.09;101656.48;130691;1265;112225;-77
2022/03/27 03:03:56;;;;;;;12.80;4.00;;;;;;;0.57;61.59;101658.66;130678;1265;99030;-78
2022/03/27 03:07:00;;;;;;;10.80;3.70;;;;;;;0.64;61.19;101664.36;130607;1265;112359;-75
2022/03/27 03:10:03;;;;;;;10.40;3.70;;;;;;;0.72;61.38;101666.34;130562;1265;112510;-76
2022/03/27 03:13:08;;;;;;;10.70;3.90;;;;;;;0.77;61.56;101671.23;130639;1265;112358;-75
2022/03/27 03:16:12;;;;;;;12.10;4.10;;;;;;;0.81;61.39;101671.30;130479;1265;112470;-76
2022/03/27 03:19:16;;;;;;;10.20;3.80;;;;;;;0.84;61.32;101667.70;130590;1265;113152;-76
2022/03/27 03:22:19;;;;;;;12.00;4.00;;;;;;;0.84;61.23;101673.11;130472;1265;112435;-76
2022/03/27 03:25:23;;;;;;;15.30;5.20;;;;;;;0.84;61.43;101671.38;130524;1265;111887;-76
2022/03/27 03:28:26;;;;;;;11.00;4.30;;;;;;;0.82;61.54;101676.19;130529;1265;112254;-75
2022/03/27 03:31:28;;;;;;;12.50;3.90;;;;;;;0.80;61.49;101674.13;130474;1265;99200;-74
2022/03/27 03:34:31;;;;;;;11.60;3.90;;;;;;;0.79;61.33;101673.64;130486;1265;97962;-74
2022/03/27 03:37:34;;;;;;;13.00;5.10;;;;;;;0.77;61.31;101672.80;130463;1265;99060;-76
2022/03/27 03:40:37;;;;;;;13.50;4.40;;;;;;;0.74;61.52;101672.73;130549;1265;98024;-75
2022/03/27 03:43:40;;;;;;;16.20;5.30;;;;;;;0.72;61.55;101683.52;130640;1265;99034;-75
2022/03/27 03:46:43;;;;;;;11.40;4.30;;;;;;;0.66;61.72;101681.61;130663;1265;97990;-75
2022/03/27 03:49:45;;;;;;;18.00;4.70;;;;;;;0.60;61.55;101685.34;130474;1265;99239;-76
2022/03/27 03:52:48;;;;;;;14.10;4.50;;;;;;;0.56;61.68;101690.02;130555;1265;99245;-75
2022/03/27 03:55:51;;;;;;;14.10;4.90;;;;;;;0.55;61.71;101685.89;130692;1265;98315;-76
2022/03/27 03:58:54;;;;;;;15.90;5.20;;;;;;;0.52;61.85;101689.13;130535;1265;97984;-74
2022/03/27 04:01:57;;;;;;;15.90;6.50;;;;;;;0.50;61.77;101690.93;130676;1265;97985;-75
2022/03/27 04:05:01;;;;;;;15.60;4.70;;;;;;;0.46;61.63;101693.52;130752;1265;98098;-75
2022/03/27 04:08:04;;;;;;;13.70;4.80;;;;;;;0.41;61.94;101698.43;130680;1265;99139;-76
2022/03/27 04:11:07;;;;;;;12.00;4.40;;;;;;;0.33;62.94;101702.73;130697;1265;97958;-76
2022/03/27 04:14:09;;;;;;;12.20;4.40;;;;;;;0.27;62.15;101707.65;130701;1265;98994;-73
2022/03/27 04:17:12;;;;;;;11.20;4.40;;;;;;;0.21;62.71;101707.51;130687;1265;98016;-74
2022/03/27 04:20:16;;;;;;;10.00;4.20;;;;;;;0.12;63.22;101709.52;130567;1265;98700;-73
2022/03/27 04:23:19;;;;;;;13.30;4.80;;;;;;;0.10;62.61;101710.50;130748;1265;112846;-73
2022/03/27 04:26:22;;;;;;;13.60;5.10;;;;;;;0.08;62.95;101709.67;130731;1265;97977;-73
2022/03/27 04:29:25;;;;;;;12.30;4.60;;;;;;;0.07;62.94;101718.11;130669;1265;98415;-74
2022/03/27 04:32:27;;;;;;;13.60;4.20;;;;;;;0.09;62.98;101717.18;130695;1265;97956;-74
2022/03/27 04:35:30;;;;;;;13.70;4.00;;;;;;;0.15;63.51;101726.92;130780;1265;98651;-74
2022/03/27 04:38:33;;;;;;;12.60;4.30;;;;;;;0.23;63.39;101727.05;130674;1265;99170;-74
2022/03/27 04:41:36;;;;;;;15.20;4.60;;;;;;;0.29;63.17;101731.92;130660;1265;98069;-75
2022/03/27 04:44:39;;;;;;;10.70;4.30;;;;;;;0.35;63.12;101728.94;130516;1265;98065;-75
2022/03/27 04:47:42;;;;;;;11.40;4.40;;;;;;;0.36;63.58;101732.36;130554;1265;98478;-73
2022/03/27 04:50:44;;;;;;;8.80;4.10;;;;;;;0.39;63.43;101732.09;130517;1265;99239;-74
2022/03/27 04:53:47;;;;;;;12.30;5.00;;;;;;;0.40;63.15;101732.25;130651;1265;98000;-75
2022/03/27 04:56:50;;;;;;;9.60;4.40;;;;;;;0.40;63.17;101733.47;130620;1265;98043;-74
2022/03/27 04:59:53;;;;;;;85.30;38.60;;;;;;;0.43;63.32;101736.71;130595;1265;97974;-74
2022/03/27 05:02:56;;;;;;;21.60;11.00;;;;;;;0.44;63.23;101740.52;130595;1265;108645;-75
2022/03/27 05:05:59;;;;;;;78.30;32.90;;;;;;;0.51;63.22;101741.70;130548;1265;107518;-74
2022/03/27 05:09:02;;;;;;;35.30;14.20;;;;;;;0.60;63.04;101743.12;130644;1265;108740;-74
2022/03/27 05:12:07;;;;;;;118.10;45.50;;;;;;;0.64;63.10;101745.98;130794;1265;98053;-74
2022/03/27 05:15:11;;;;;;;28.30;12.00;;;;;;;0.68;63.05;101743.36;130723;1264;107461;-74
2022/03/27 05:18:14;;;;;;;133.30;47.80;;;;;;;0.70;63.34;101751.35;130783;1265;108820;-75
2022/03/27 05:21:16;;;;;;;21.50;8.10;;;;;;;0.68;63.59;101745.84;130665;1265;98394;-75
2022/03/27 05:24:19;;;;;;;33.60;14.80;;;;;;;0.66;63.25;101749.77;130759;1265;98643;-74
2022/03/27 05:27:21;;;;;;;35.90;15.20;;;;;;;0.70;63.43;101750.66;130763;1265;98016;-76
2022/03/27 05:30:27;;;;;;;66.40;25.20;;;;;;;0.73;63.32;101754.41;130775;1265;98713;-76
2022/03/27 05:33:30;;;;;;;41.80;17.00;;;;;;;0.74;63.88;101765.77;130717;1265;109665;-74
2022/03/27 05:36:33;;;;;;;20.00;8.70;;;;;;;0.73;63.78;101773.88;130531;1265;99172;-74
2022/03/27 05:39:35;;;;;;;14.90;6.60;;;;;;;0.72;63.95;101781.96;130878;1265;97983;-74
2022/03/27 05:42:39;;;;;;;13.20;6.00;;;;;;;0.72;64.18;101782.47;130571;1265;99181;-75
2022/03/27 05:45:41;;;;;;;12.70;5.80;;;;;;;0.80;63.63;101777.83;130480;1265;99190;-76
2022/03/27 05:48:44;;;;;;;10.30;4.90;;;;;;;0.94;63.79;101774.00;130548;1265;97984;-76
2022/03/27 05:51:47;;;;;;;12.20;5.30;;;;;;;1.10;63.53;101773.45;130529;1265;98068;-75
2022/03/27 05:54:50;;;;;;;11.60;5.10;;;;;;;1.22;63.66;101775.98;130520;1265;98662;-73
2022/03/27 05:57:52;;;;;;;11.10;5.30;;;;;;;1.27;63.52;101778.08;130548;1265;98567;-74
2022/03/27 06:00:55;;;;;;;11.70;5.50;;;;;;;1.37;63.59;101781.77;130648;1265;99168;-73
2022/03/27 06:03:58;;;;;;;12.60;5.40;;;;;;;1.43;63.43;101785.75;130643;1265;98744;-73
2022/03/27 06:07:00;;;;;;;12.60;5.60;;;;;;;1.45;63.38;101786.21;130731;1265;98054;-78
2022/03/27 06:10:04;;;;;;;12.20;5.70;;;;;;;1.49;63.47;101789.56;130548;1265;97988;-75
2022/03/27 06:13:10;;;;;;;12.10;5.70;;;;;;;1.58;63.35;101795.02;130479;1265;99178;-75
2022/03/27 06:16:12;;;;;;;13.50;6.00;;;;;;;1.69;63.31;101799.34;130550;1265;98547;-75
2022/03/27 06:19:15;;;;;;;14.70;5.70;;;;;;;1.79;63.30;101795.64;130572;1265;99220;-77
2022/03/27 06:22:17;;;;;;;15.20;6.00;;;;;;;1.85;63.24;101799.97;130550;1265;97971;-74
2022/03/27 06:25:22;;;;;;;12.10;5.90;;;;;;;1.90;63.25;101805.20;130694;1265;98777;-77
2022/03/27 06:28:25;;;;;;;10.40;5.40;;;;;;;1.96;63.22;101808.85;130553;1265;99159;-77
2022/03/27 06:31:27;;;;;;;13.60;6.10;;;;;;;2.00;63.16;101813.96;130533;1265;99170;-75
2022/03/27 06:34:31;;;;;;;15.50;5.80;;;;;;;2.01;63.07;101819.04;130706;1265;97940;-77
2022/03/27 06:37:34;;;;;;;13.60;6.70;;;;;;;2.04;63.07;101829.23;130698;1265;99163;-74
2022/03/27 06:40:37;;;;;;;12.20;6.00;;;;;;;2.09;63.03;101839.22;130768;1265;99239;-77
2022/03/27 06:43:40;;;;;;;15.20;8.20;;;;;;;2.16;63.08;101845.45;130626;1265;98063;-74
2022/03/27 06:46:43;;;;;;;13.10;6.60;;;;;;;2.28;63.16;101844.83;130490;1267;98639;-76
2022/03/27 06:49:46;;;;;;;11.50;6.30;;;;;;;2.41;62.94;101844.28;130511;1265;98773;-77
2022/03/27 06:52:49;;;;;;;14.80;6.50;;;;;;;2.52;62.59;101843.52;130650;1265;98435;-75
2022/03/27 06:55:52;;;;;;;12.60;6.00;;;;;;;2.65;62.77;101848.09;130554;1265;98738;-73
2022/03/27 06:58:54;;;;;;;12.40;5.50;;;;;;;2.79;62.56;101851.54;130707;1265;98230;-77
2022/03/27 07:05:18;;;;;;;14.00;8.90;;;;;;;3.05;61.85;101849.05;130679;1265;98728;-79
2022/03/27 07:08:21;;;;;;;22.10;13.50;;;;;;;3.12;61.67;101848.38;130561;1265;99139;-77
2022/03/27 07:11:24;;;;;;;29.00;18.00;;;;;;;3.24;62.01;101849.30;130628;1265;98335;-77
2022/03/27 07:14:27;;;;;;;11.60;5.40;;;;;;;3.35;60.90;101850.42;130598;1264;98642;-81
2022/03/27 07:17:30;;;;;;;8.90;4.60;;;;;;;3.40;60.35;101848.40;130647;1265;99186;-77
2022/03/27 07:20:36;;;;;;;10.00;6.40;;;;;;;3.49;60.52;101848.74;130635;1265;97971;-77
2022/03/27 07:23:38;;;;;;;9.70;3.90;;;;;;;3.58;59.79;101850.96;130603;1265;99029;-78
2022/03/27 07:26:43;;;;;;;7.00;3.40;;;;;;;3.70;60.11;101854.79;130550;1265;99046;-77
2022/03/27 07:29:46;;;;;;;6.20;2.70;;;;;;;3.83;58.70;101860.59;130584;1265;97938;-78
2022/03/27 07:32:48;;;;;;;5.10;2.40;;;;;;;3.88;58.15;101862.45;130656;1268;98032;-78
2022/03/27 07:35:51;;;;;;;6.80;2.50;;;;;;;3.98;58.09;101867.28;130651;1265;99239;-76
2022/03/27 07:38:54;;;;;;;4.40;2.00;;;;;;;4.06;57.40;101872.91;130564;1265;99181;-76
2022/03/27 07:41:56;;;;;;;4.80;1.90;;;;;;;4.13;56.82;101870.29;130608;1265;98065;-74
2022/03/27 07:44:59;;;;;;;4.30;2.20;;;;;;;4.19;57.43;101872.61;130702;1265;98057;-75
2022/03/27 07:48:04;;;;;;;4.50;1.60;;;;;;;4.30;56.16;101873.37;130620;1268;97980;-78
2022/03/27 07:51:08;;;;;;;29.80;19.80;;;;;;;4.34;55.27;101875.98;130573;1266;99056;-81
2022/03/27 07:54:11;;;;;;;29.50;18.10;;;;;;;4.44;55.03;101875.36;131460;1265;97955;-78
2022/03/27 07:57:13;;;;;;;11.60;4.80;;;;;;;4.49;53.13;101876.35;130996;1268;99139;-81
2022/03/27 08:00:17;;;;;;;5.30;2.30;;;;;;;4.53;52.39;101878.59;131017;1267;98035;-79
2022/03/27 08:03:20;;;;;;;4.60;1.70;;;;;;;4.62;49.82;101876.95;131006;1265;98338;-77
2022/03/27 08:06:23;;;;;;;4.70;2.20;;;;;;;4.70;50.22;101874.77;130593;1268;98725;-76
2022/03/27 08:09:26;;;;;;;2.80;1.40;;;;;;;4.76;50.99;101863.89;130623;1268;98010;-76
2022/03/27 08:12:28;;;;;;;2.70;1.30;;;;;;;4.87;49.99;101859.86;130526;1268;98754;-76
2022/03/27 08:15:31;;;;;;;3.50;1.40;;;;;;;5.03;50.93;101858.33;130632;1268;98173;-79
2022/03/27 08:18:34;;;;;;;4.10;2.10;;;;;;;5.22;50.28;101853.83;130550;1268;98345;-78
2022/03/27 08:21:39;;;;;;;5.10;1.70;;;;;;;5.31;49.51;101852.32;130690;1268;98679;-80
2022/03/27 08:24:42;;;;;;;3.10;1.40;;;;;;;5.41;50.44;101854.63;130876;1265;99056;-77
2022/03/27 08:27:45;;;;;;;2.60;1.10;;;;;;;5.54;50.25;101844.21;130645;1266;97900;-77
2022/03/27 08:30:48;;;;;;;3.10;1.30;;;;;;;5.68;47.69;101846.11;130747;1265;97963;-76
2022/03/27 08:33:51;;;;;;;3.70;1.60;;;;;;;5.85;49.38;101845.92;130692;1267;97976;-76
2022/03/27 08:36:53;;;;;;;2.40;1.40;;;;;;;6.05;47.28;101840.65;130716;1265;97982;-74
2022/03/27 08:39:58;;;;;;;2.80;1.10;;;;;;;6.17;48.53;101839.76;130555;1265;98397;-75
2022/03/27 08:43:01;;;;;;;3.20;1.50;;;;;;;6.34;47.08;101840.44;130533;1268;98734;-74
2022/03/27 08:46:05;;;;;;;3.60;1.30;;;;;;;6.33;45.97;101844.73;130604;1267;99149;-75
2022/03/27 08:49:11;;;;;;;2.80;1.50;;;;;;;6.21;43.43;101839.59;130567;1265;98002;-74
2022/03/27 08:52:34;;;;;;;2.00;1.20;;;;;;;6.27;46.87;101833.24;130571;1268;98038;-76
2022/03/27 08:55:41;;;;;;;1.80;0.80;;;;;;;6.45;47.09;101827.42;130695;1267;99184;-77
2022/03/27 08:58:45;;;;;;;3.80;1.50;;;;;;;6.52;46.73;101826.16;130642;1267;97972;-74
2022/03/27 09:01:48;;;;;;;4.40;1.70;;;;;;;6.52;46.40;101826.48;130601;1265;97963;-73
2022/03/27 09:04:53;;;;;;;3.20;1.70;;;;;;;6.51;42.94;101829.40;130599;1267;99139;-72
2022/03/27 09:08:02;;;;;;;1.50;0.90;;;;;;;6.47;45.81;101831.36;130656;1265;99092;-72
2022/03/27 09:11:15;;;;;;;2.00;1.00;;;;;;;6.59;47.11;101826.45;130530;1265;98096;-74
2022/03/27 09:14:18;;;;;;;2.80;1.40;;;;;;;6.66;44.35;101828.14;130596;1265;97953;-73
2022/03/27 09:17:21;;;;;;;3.10;1.10;;;;;;;6.66;43.55;101833.61;130545;1267;98045;-75
2022/03/27 09:20:37;;;;;;;2.70;0.90;;;;;;;6.63;40.94;101837.33;130487;1268;99280;-73
2022/03/27 09:23:39;;;;;;;2.10;1.00;;;;;;;6.61;44.76;101829.36;130612;1268;99150;-74
2022/03/27 09:27:00;;;;;;;3.00;1.60;;;;;;;6.62;43.43;101828.73;130629;1265;99175;-75
2022/03/27 09:30:07;;;;;;;2.70;1.40;;;;;;;6.71;43.32;101820.83;130534;1268;98728;-74
2022/03/27 09:33:09;;;;;;;17.00;9.20;;;;;;;6.78;43.16;101817.02;130796;1265;98747;-75
2022/03/27 09:36:14;;;;;;;5.50;2.00;;;;;;;6.84;43.86;101811.17;130706;1265;98754;-77
2022/03/27 09:39:19;;;;;;;5.30;2.90;;;;;;;6.94;43.36;101810.80;131221;1265;97956;-77
2022/03/27 09:42:23;;;;;;;10.00;4.20;;;;;;;7.01;44.70;101797.23;130694;1268;97986;-75
2022/03/27 09:45:25;;;;;;;4.40;2.10;;;;;;;7.12;42.51;101794.88;130715;1268;98763;-76
2022/03/27 09:48:29;;;;;;;1.70;1.10;;;;;;;7.12;42.15;101795.36;130700;1267;99139;-77
2022/03/27 09:51:32;;;;;;;3.10;1.30;;;;;;;7.14;40.35;101797.23;130746;1268;99169;-79
2022/03/27 09:54:46;;;;;;;3.70;1.40;;;;;;;7.12;41.33;101796.66;130605;1268;98586;-77
2022/03/27 09:57:58;;;;;;;2.50;1.20;;;;;;;7.16;42.99;101799.02;130581;1267;98033;-76
2022/03/27 10:01:08;;;;;;;2.60;1.00;;;;;;;7.18;41.21;101799.79;130567;1266;98074;-76
2022/03/27 10:04:14;;;;;;;2.50;1.00;;;;;;;7.25;42.45;101795.69;130552;1268;97952;-79
2022/03/27 10:07:18;;;;;;;2.70;1.10;;;;;;;7.33;41.61;101788.05;130737;1265;99300;-76
2022/03/27 10:10:23;;;;;;;1.30;0.70;;;;;;;7.38;39.73;101786.91;130580;1265;98080;-76
2022/03/27 10:13:29;;;;;;;2.10;0.90;;;;;;;7.44;38.63;101781.17;130486;1265;98637;-76
2022/03/27 10:16:34;;;;;;;1.40;0.80;;;;;;;7.49;41.01;101780.58;130775;1265;98039;-75
2022/03/27 10:19:44;;;;;;;5.00;3.20;;;;;;;7.56;40.62;101779.23;130631;1265;97950;-75
2022/03/27 10:22:49;;;;;;;2.90;1.90;;;;;;;7.60;40.42;101773.86;130843;1268;98022;-73
2022/03/27 10:25:55;;;;;;;8.50;4.70;;;;;;;7.62;38.66;101778.31;130529;1268;97984;-73
2022/03/27 10:28:59;;;;;;;3.00;1.60;;;;;;;7.58;37.76;101774.83;130586;1268;97967;-73
2022/03/27 10:32:03;;;;;;;2.70;1.90;;;;;;;7.58;40.30;101768.46;130680;1265;98032;-73
2022/03/27 10:35:36;;;;;;;3.30;2.00;;;;;;;7.66;40.61;101765.66;131325;1265;99167;-72
2022/03/27 10:38:47;;;;;;;2.70;1.40;;;;;;;7.81;40.12;101759.73;130602;1268;97953;-74
2022/03/27 10:42:02;;;;;;;2.70;1.10;;;;;;;7.88;41.16;101755.97;130713;1267;98042;-73
2022/03/27 10:45:09;;;;;;;1.90;0.80;;;;;;;7.95;39.04;101758.91;130813;1265;98028;-73
2022/03/27 10:48:18;;;;;;;4.30;2.80;;;;;;;7.96;37.88;101759.55;131071;1268;98046;-74
2022/03/27 10:51:34;;;;;;;4.10;1.80;;;;;;;8.04;40.99;101756.89;130860;1265;98747;-74
2022/03/27 10:54:59;;;;;;;3.70;1.50;;;;;;;8.20;40.84;101753.64;130990;1265;99036;-75
2022/03/27 10:58:21;;;;;;;1.90;0.90;;;;;;;8.22;39.48;101747.56;130685;1268;97987;-74
2022/03/27 11:01:37;;;;;;;;;;;;;;;8.25;39.53;101743.63;130547;1268;99034;-73
2022/03/27 11:04:41;;;;;;;4.00;0.90;;;;;;;8.28;37.29;101743.25;130657;1268;97955;-74
2022/03/27 11:07:44;;;;;;;2.50;1.30;;;;;;;8.22;39.03;101735.83;134577;1266;95612;-72
2022/03/27 11:10:49;;;;;;;3.50;1.00;;;;;;;8.28;39.40;101731.20;131913;1268;98269;-72
2022/03/27 11:13:52;;;;;;;2.00;1.10;;;;;;;8.37;40.06;101723.30;130798;1267;98741;-73
2022/03/27 11:17:14;;;;;;;3.40;1.20;;;;;;;8.37;37.71;101724.73;130671;1265;98084;-74
2022/03/27 11:20:56;;;;;;;2.70;1.20;;;;;;;8.37;39.11;101720.85;130499;1268;98052;-75
2022/03/27 11:24:25;;;;;;;2.30;1.10;;;;;;;8.37;38.38;101720.66;130558;1268;98772;-72
2022/03/27 11:27:55;;;;;;;1.60;0.80;;;;;;;8.39;37.96;101717.66;130485;1268;99213;-74
2022/03/27 11:31:23;;;;;;;2.20;1.00;;;;;;;8.47;38.77;101708.48;130449;1268;99178;-74
2022/03/27 11:34:27;;;;;;;2.60;1.10;;;;;;;8.51;37.98;101702.06;130396;1268;98080;-71
2022/03/27 11:37:31;;;;;;;2.10;0.80;;;;;;;8.54;39.25;101700.02;130474;1265;99040;-74
2022/03/27 11:40:41;;;;;;;3.50;1.10;;;;;;;8.61;39.47;101696.73;130610;1265;97949;-74
2022/03/27 11:43:43;;;;;;;2.20;1.30;;;;;;;8.69;39.95;101692.48;130578;1265;98002;-75
2022/03/27 11:46:50;;;;;;;4.50;1.00;;;;;;;8.70;37.11;101693.80;130725;1265;98061;-76
2022/03/27 11:49:54;;;;;;;2.90;1.10;;;;;;;8.65;34.92;101697.73;130538;1265;98753;-75
2022/03/27 11:52:58;;;;;;;2.20;0.90;;;;;;;8.58;38.35;101689.86;130498;1265;97990;-73
2022/03/27 11:56:12;;;;;;;3.50;1.30;;;;;;;8.63;37.78;101685.92;130817;1265;98054;-73
2022/03/27 11:59:15;;;;;;;2.70;1.20;;;;;;;8.68;37.79;101684.02;130540;1265;98093;-73
2022/03/27 12:02:22;;;;;;;1.80;1.10;;;;;;;8.65;36.60;101678.87;130492;1265;98011;-74
2022/03/27 12:05:33;;;;;;;2.50;1.00;;;;;;;8.71;38.71;101673.02;130531;1268;97985;-74
2022/03/27 12:08:37;;;;;;;3.30;1.00;;;;;;;8.83;39.31;101672.71;130728;1265;98645;-74
2022/03/27 12:11:44;;;;;;;5.50;1.20;;;;;;;8.95;39.64;101657.66;131079;1265;97955;-75
2022/03/27 12:14:58;;;;;;;3.80;1.40;;;;;;;9.05;38.21;101653.42;131701;1265;97924;-76
2022/03/27 12:18:05;;;;;;;2.10;1.00;;;;;;;9.12;37.84;101648.30;131693;1268;98019;-74
2022/03/27 12:21:10;;;;;;;2.40;1.10;;;;;;;9.20;38.71;101649.31;130511;1265;98751;-74
2022/03/27 12:24:13;;;;;;;2.30;1.20;;;;;;;9.28;37.95;101645.04;130538;1265;176231;-74
2022/03/27 12:30:46;;;;;;;1.80;1.00;;;;;;;9.10;35.10;101638.48;130620;1265;97969;-74
2022/03/27 12:33:50;;;;;;;2.70;1.10;;;;;;;9.03;36.64;101636.70;130667;1265;97958;-74
2022/03/27 12:37:14;;;;;;;3.30;1.10;;;;;;;9.05;36.44;101632.31;130658;1265;98041;-73
2022/03/27 12:40:16;;;;;;;3.20;1.10;;;;;;;9.03;35.36;101629.19;130676;1265;97987;-73
2022/03/27 12:43:21;;;;;;;2.70;1.20;;;;;;;9.13;38.04;101623.88;130585;1265;98071;-76
2022/03/27 12:46:24;;;;;;;2.60;1.50;;;;;;;9.22;35.84;101620.72;130591;1265;99136;-74
2022/03/27 12:49:27;;;;;;;2.80;1.40;;;;;;;9.24;36.33;101618.11;130676;1265;97990;-73
2022/03/27 12:52:30;;;;;;;4.10;1.60;;;;;;;9.29;37.26;101615.99;130631;1265;98065;-73
2022/03/27 12:55:45;;;;;;;2.40;1.30;;;;;;;9.35;36.68;101609.89;130434;1265;98725;-73
2022/03/27 12:58:47;;;;;;;3.40;1.40;;;;;;;9.39;36.39;101606.92;131099;1265;97970;-74
2022/03/27 13:01:50;;;;;;;2.50;1.40;;;;;;;9.47;37.70;101607.23;130576;1268;98045;-74
2022/03/27 13:05:01;;;;;;;1.80;1.10;;;;;;;9.54;36.97;101598.35;130691;1265;98077;-74
2022/03/27 13:08:06;;;;;;;3.80;1.60;;;;;;;9.63;37.83;101599.11;130601;1265;97943;-75
2022/03/27 13:11:10;;;;;;;3.20;1.80;;;;;;;9.73;37.71;101605.48;130868;1264;98493;-73
2022/03/27 13:14:14;;;;;;;2.40;1.30;;;;;;;9.74;36.44;101597.44;130483;1265;98042;-71
2022/03/27 13:17:17;;;;;;;1.80;1.30;;;;;;;9.76;36.95;101593.36;130640;1265;98831;-71
2022/03/27 13:20:30;;;;;;;2.50;1.40;;;;;;;9.69;35.85;101586.05;130873;1265;98045;-71
2022/03/27 13:23:32;;;;;;;17.50;4.70;;;;;;;9.60;37.55;101584.06;130525;1265;99194;-71
2022/03/27 13:26:36;;;;;;;8.90;4.90;;;;;;;9.59;36.67;101578.61;130654;1265;99187;-72
2022/03/27 13:29:39;;;;;;;4.60;2.10;;;;;;;9.51;35.26;101576.39;130651;1265;99064;-70
2022/03/27 13:32:42;;;;;;;7.30;2.90;;;;;;;9.40;35.38;101566.55;130190;1268;98188;-71
2022/03/27 13:35:48;;;;;;;5.80;2.50;;;;;;;9.35;33.99;101571.50;130348;1265;99172;-71
2022/03/27 13:38:51;;;;;;;6.80;4.20;;;;;;;9.33;34.97;101564.55;130273;1267;99124;-72
2022/03/27 13:45:16;;;;;;;4.00;2.40;;;;;;;9.42;35.82;101556.65;130642;1265;98445;-74
2022/03/27 13:48:19;;;;;;;3.20;1.50;;;;;;;9.41;35.73;101545.11;130793;1265;98468;-77
2022/03/27 13:51:21;;;;;;;5.20;2.00;;;;;;;9.40;34.97;101542.70;130654;1268;98445;-76
2022/03/27 13:54:24;;;;;;;10.50;4.90;;;;;;;9.37;35.51;101535.70;130564;1266;98051;-77
2022/03/27 13:57:27;;;;;;;5.00;2.00;;;;;;;9.40;36.49;101521.59;130804;1267;98048;-75
2022/03/27 14:00:34;;;;;;;8.50;5.90;;;;;;;9.53;36.43;101518.70;130638;1268;98737;-75
2022/03/27 14:03:37;;;;;;;7.10;4.50;;;;;;;9.67;35.78;101509.11;130671;1268;99057;-76
2022/03/27 14:06:41;;;;;;;10.00;4.90;;;;;;;9.81;35.12;101511.39;130644;1268;99164;-76
2022/03/27 14:09:44;;;;;;;8.10;3.90;;;;;;;9.85;34.69;101506.48;130641;1268;99178;-76
2022/03/27 14:12:47;;;;;;;38.30;15.60;;;;;;;9.90;36.12;101504.15;130614;1268;99039;-79
2022/03/27 14:15:49;;;;;;;11.20;4.80;;;;;;;9.97;33.87;101505.21;130549;1268;99025;-78
2022/03/27 14:18:52;;;;;;;9.10;4.30;;;;;;;9.93;34.58;101501.59;130484;1267;98078;-78
2022/03/27 14:21:56;;;;;;;88.20;36.40;;;;;;;9.94;35.71;101503.10;130859;1268;97974;-74